Time;durP1;ratioP1;P1;durP2;ratioP2;P2;SDS_P1;SDS_P2;PMS_P1;PMS_P2;Temp;Humidity;BMP_temperature;BMP_pressure;BME280_temperature;BME280_humidity;BME280_pressure;Samples;Min_cycle;Max_cycle;Signal;HPM_P1;HPM_P2
2021/01/02 00:00:51;;;;;;;31.33;16.25;;;3.40;99.90;;;;;;5137939;27;20022;-66
2021/01/02 00:03:23;;;;;;;31.23;16.77;;;3.30;99.90;;;;;;5138837;27;20034;-66
2021/01/02 00:05:56;;;;;;;27.27;15.63;;;3.30;99.90;;;;;;5140322;27;20027;-65
2021/01/02 00:08:25;;;;;;;29.05;15.68;;;3.40;99.90;;;;;;5140086;27;20111;-66
2021/01/02 00:11:14;;;;;;;29.17;16.15;;;3.40;99.90;;;;;;5139939;27;20019;-66
2021/01/02 00:14:01;;;;;;;29.33;16.95;;;3.40;99.90;;;;;;5140538;27;20024;-66
2021/01/02 00:16:55;;;;;;;29.75;16.05;;;3.40;99.90;;;;;;5139470;27;20432;-66
2021/01/02 00:19:39;;;;;;;31.27;16.52;;;3.30;99.90;;;;;;5136990;27;20030;-66
2021/01/02 00:22:12;;;;;;;31.25;17.88;;;3.30;99.90;;;;;;5138691;27;20360;-66
2021/01/02 00:24:58;;;;;;;32.47;18.05;;;3.30;99.90;;;;;;5137915;27;20129;-65
2021/01/02 00:27:32;;;;;;;32.00;17.60;;;3.20;99.90;;;;;;5137468;27;20031;-65
2021/01/02 00:30:03;;;;;;;30.77;16.88;;;3.20;99.90;;;;;;5137288;27;20027;-66
2021/01/02 00:32:54;;;;;;;33.30;17.45;;;3.20;99.90;;;;;;5136586;27;20019;-65
2021/01/02 00:35:22;;;;;;;32.20;17.17;;;3.20;99.90;;;;;;5137085;27;20071;-64
2021/01/02 00:38:07;;;;;;;36.38;17.90;;;3.30;99.90;;;;;;5136690;27;20031;-65
2021/01/02 00:40:35;;;;;;;32.95;16.70;;;3.30;99.90;;;;;;5135842;27;20019;-65
2021/01/02 00:43:01;;;;;;;32.45;18.63;;;3.30;99.90;;;;;;5136232;27;20031;-65
2021/01/02 00:45:28;;;;;;;32.95;17.88;;;3.30;99.90;;;;;;5136235;27;20030;-65
2021/01/02 00:47:55;;;;;;;37.10;18.33;;;3.40;99.90;;;;;;5136051;27;20036;-66
2021/01/02 00:50:25;;;;;;;32.28;17.27;;;3.30;99.90;;;;;;5136021;27;20027;-66
2021/01/02 00:52:52;;;;;;;32.08;16.88;;;3.30;99.90;;;;;;5134791;27;20034;-66
2021/01/02 00:55:24;;;;;;;33.10;16.80;;;3.30;99.90;;;;;;5135784;27;20026;-64
2021/01/02 00:57:49;;;;;;;39.13;19.15;;;3.30;99.90;;;;;;5136173;27;20106;-66
2021/01/02 01:00:28;;;;;;;40.77;19.43;;;3.30;99.90;;;;;;5136354;27;20051;-66
2021/01/02 01:03:12;;;;;;;33.20;17.02;;;3.40;99.90;;;;;;5136746;27;20019;-65
2021/01/02 01:05:39;;;;;;;33.95;17.55;;;3.40;99.90;;;;;;5134304;27;20110;-65
2021/01/02 01:08:06;;;;;;;37.55;18.85;;;3.40;99.90;;;;;;5135779;27;20027;-65
2021/01/02 01:10:34;;;;;;;37.78;18.30;;;3.40;99.90;;;;;;5135319;27;20076;-65
2021/01/02 01:13:00;;;;;;;38.10;19.27;;;3.40;99.90;;;;;;5134184;27;20045;-65
2021/01/02 01:15:26;;;;;;;37.42;18.20;;;3.40;99.90;;;;;;5135189;27;20031;-64
2021/01/02 01:18:17;;;;;;;38.47;20.35;;;3.40;99.90;;;;;;5135551;27;20064;-65
2021/01/02 01:20:52;;;;;;;40.83;20.20;;;3.40;99.90;;;;;;5135661;27;20087;-65
2021/01/02 01:23:48;;;;;;;38.78;18.40;;;3.50;99.90;;;;;;5135819;27;20075;-65
2021/01/02 01:26:56;;;;;;;38.97;19.23;;;3.50;99.90;;;;;;5135003;27;20023;-66
2021/01/02 01:30:01;;;;;;;42.70;20.15;;;3.50;99.90;;;;;;5135987;27;20021;-66
2021/01/02 01:32:28;;;;;;;40.65;19.50;;;3.50;99.90;;;;;;5055629;28;20035;-65
2021/01/02 01:34:59;;;;;;;37.90;18.30;;;3.50;99.90;;;;;;5122321;27;20034;-65
2021/01/02 01:37:31;;;;;;;40.25;19.23;;;3.50;99.90;;;;;;5136325;27;20023;-66
2021/01/02 01:39:57;;;;;;;39.38;19.27;;;3.40;99.90;;;;;;5135880;27;20047;-64
2021/01/02 01:42:38;;;;;;;;;;;3.30;99.90;;;;;;5135916;27;20019;-65
2021/01/02 01:45:41;;;;;;;42.90;19.15;;;3.30;99.90;;;;;;5135473;27;19910;-65
2021/01/02 01:48:12;;;;;;;39.80;19.50;;;3.30;99.90;;;;;;5134473;27;20020;-66
2021/01/02 01:51:05;;;;;;;43.28;20.73;;;3.30;99.90;;;;;;5134444;27;20019;-65
2021/01/02 01:54:00;;;;;;;38.95;19.08;;;3.30;99.90;;;;;;5134902;27;20487;-65
2021/01/02 01:56:32;;;;;;;39.70;19.92;;;3.30;99.90;;;;;;5120560;27;20027;-65
2021/01/02 01:59:23;;;;;;;42.60;20.05;;;3.30;99.90;;;;;;5134008;27;20467;-65
2021/01/02 02:01:56;;;;;;;40.30;20.17;;;3.30;99.90;;;;;;5135168;27;20015;-65
2021/01/02 02:04:29;;;;;;;41.90;18.95;;;3.30;99.90;;;;;;5134844;27;20057;-66
2021/01/02 02:07:01;;;;;;;44.28;20.23;;;3.30;99.90;;;;;;5134334;27;20020;-65
2021/01/02 02:09:41;;;;;;;40.63;18.52;;;3.30;99.90;;;;;;5135160;27;20370;-65
2021/01/02 02:12:30;;;;;;;42.20;20.08;;;3.30;99.90;;;;;;5135142;27;20098;-65
2021/01/02 02:14:58;;;;;;;45.80;20.85;;;3.30;99.90;;;;;;5134876;28;20029;-65
2021/01/02 02:17:45;;;;;;;39.92;19.88;;;3.30;99.90;;;;;;5135627;28;20034;-66
2021/01/02 02:20:15;;;;;;;39.42;19.75;;;3.30;99.90;;;;;;5133181;28;20019;-66
2021/01/02 02:22:41;;;;;;;41.90;19.73;;;3.30;99.90;;;;;;5135351;28;20083;-66
2021/01/02 02:25:13;;;;;;;39.30;19.63;;;3.40;99.90;;;;;;5134523;28;20062;-66
2021/01/02 02:27:41;;;;;;;38.70;18.55;;;3.30;99.90;;;;;;5134724;28;20034;-66
2021/01/02 02:30:16;;;;;;;42.28;18.92;;;3.30;99.90;;;;;;5135017;28;20011;-66
2021/01/02 02:32:47;;;;;;;38.75;19.10;;;3.40;99.90;;;;;;5133188;28;20030;-66
2021/01/02 02:35:21;;;;;;;43.13;19.77;;;3.40;99.90;;;;;;5132865;28;20062;-66
2021/01/02 02:37:52;;;;;;;34.35;17.38;;;3.40;99.90;;;;;;5134365;28;20072;-66
2021/01/02 02:40:20;;;;;;;39.38;18.83;;;3.30;99.90;;;;;;5132980;28;20387;-66
2021/01/02 02:43:00;;;;;;;40.30;19.98;;;3.30;99.90;;;;;;5134923;28;20019;-66
2021/01/02 02:45:31;;;;;;;40.28;19.52;;;3.30;99.90;;;;;;5135598;28;20110;-65
2021/01/02 02:48:00;;;;;;;38.95;19.17;;;3.30;99.90;;;;;;5137951;28;20079;-65
2021/01/02 02:50:27;;;;;;;41.78;20.42;;;3.30;99.90;;;;;;5136527;28;20026;-66
2021/01/02 02:53:10;;;;;;;37.42;18.80;;;3.30;99.90;;;;;;5135942;28;20067;-66
2021/01/02 02:55:42;;;;;;;39.83;19.33;;;3.30;99.90;;;;;;5135547;28;20023;-66
2021/01/02 02:58:08;;;;;;;40.53;19.73;;;3.30;99.90;;;;;;5135489;28;20015;-65
2021/01/02 03:00:34;;;;;;;35.95;17.98;;;3.30;99.90;;;;;;5133738;28;20019;-65
2021/01/02 03:03:01;;;;;;;43.80;19.30;;;3.30;99.90;;;;;;5137159;27;20031;-65
2021/01/02 03:05:27;;;;;;;39.90;19.10;;;3.20;99.90;;;;;;5138344;27;20395;-65
2021/01/02 03:07:53;;;;;;;34.92;18.25;;;3.20;99.90;;;;;;5138217;27;20051;-65
2021/01/02 03:10:21;;;;;;;39.73;20.13;;;3.20;99.90;;;;;;5136791;27;20477;-65
2021/01/02 03:12:52;;;;;;;37.97;19.95;;;3.20;99.90;;;;;;5137705;27;20102;-65
2021/01/02 03:15:30;;;;;;;37.17;18.80;;;3.20;99.90;;;;;;5138019;27;20360;-66
2021/01/02 03:17:56;;;;;;;41.05;19.90;;;3.20;99.90;;;;;;5137745;27;20383;-66
2021/01/02 03:20:22;;;;;;;36.13;19.03;;;3.20;99.90;;;;;;5136434;27;20068;-66
2021/01/02 03:22:49;;;;;;;41.63;18.38;;;3.20;99.90;;;;;;5137945;27;20257;-66
2021/01/02 03:25:17;;;;;;;42.45;20.15;;;3.10;99.90;;;;;;5136146;27;20068;-66
2021/01/02 03:27:43;;;;;;;40.13;18.38;;;3.20;99.90;;;;;;5137625;27;20068;-66
2021/01/02 03:30:12;;;;;;;41.40;20.70;;;3.20;99.90;;;;;;5136214;27;20020;-66
2021/01/02 03:32:38;;;;;;;37.00;19.45;;;3.20;99.90;;;;;;5135828;27;20050;-67
2021/01/02 03:35:09;;;;;;;38.92;18.58;;;3.20;99.90;;;;;;5137511;27;20023;-66
2021/01/02 03:37:36;;;;;;;41.30;19.88;;;3.20;99.90;;;;;;5135797;27;20452;-66
2021/01/02 03:40:07;;;;;;;33.28;17.48;;;3.30;99.90;;;;;;5137078;27;20038;-66
2021/01/02 03:42:41;;;;;;;39.25;18.83;;;3.30;99.90;;;;;;5136768;27;20016;-66
2021/01/02 03:45:09;;;;;;;41.78;19.10;;;3.30;99.90;;;;;;5136760;27;20023;-66
2021/01/02 03:47:37;;;;;;;39.95;18.30;;;3.30;99.90;;;;;;5135350;27;20110;-66
2021/01/02 03:50:05;;;;;;;38.85;18.83;;;3.30;99.90;;;;;;5136890;27;20019;-66
2021/01/02 03:52:30;;;;;;;36.30;18.15;;;3.30;99.90;;;;;;5136682;27;20399;-66
2021/01/02 03:54:56;;;;;;;40.47;19.33;;;3.40;99.90;;;;;;5136495;27;20019;-66
2021/01/02 03:57:21;;;;;;;37.47;18.63;;;3.40;99.90;;;;;;5135863;27;20533;-66
2021/01/02 03:59:47;;;;;;;39.67;17.37;;;3.40;99.90;;;;;;5138259;27;20094;-66
2021/01/02 04:02:13;;;;;;;36.67;19.10;;;3.40;99.90;;;;;;5137336;27;20026;-66
2021/01/02 04:04:38;;;;;;;36.27;18.47;;;3.40;99.90;;;;;;5137285;27;20030;-66
2021/01/02 04:07:04;;;;;;;34.73;17.33;;;3.40;99.90;;;;;;5136961;27;20030;-66
2021/01/02 04:09:30;;;;;;;34.53;17.83;;;3.40;99.90;;;;;;5136878;27;20034;-66
2021/01/02 04:11:56;;;;;;;37.35;19.02;;;3.40;99.90;;;;;;5136722;27;20023;-66
2021/01/02 04:14:22;;;;;;;35.00;18.53;;;3.40;99.90;;;;;;5136065;27;20486;-66
2021/01/02 04:16:48;;;;;;;34.28;17.92;;;3.40;99.90;;;;;;5136355;27;20740;-66
2021/01/02 04:19:14;;;;;;;39.17;18.93;;;3.30;99.90;;;;;;5136551;27;20034;-66
2021/01/02 04:21:41;;;;;;;39.33;18.58;;;3.30;99.90;;;;;;5136663;27;20098;-64
2021/01/02 04:24:07;;;;;;;41.10;19.73;;;3.30;99.90;;;;;;5136505;27;20344;-65
2021/01/02 04:26:33;;;;;;;;;;;3.30;99.90;;;;;;5136664;27;20026;-65
2021/01/02 04:28:59;;;;;;;41.90;20.40;;;3.30;99.90;;;;;;5136579;27;19990;-66
2021/01/02 04:31:34;;;;;;;40.17;19.38;;;3.30;99.90;;;;;;5136390;27;20023;-65
2021/01/02 04:33:59;;;;;;;40.53;20.83;;;3.20;99.90;;;;;;5136031;27;20023;-65
2021/01/02 04:36:25;;;;;;;39.97;20.23;;;3.20;99.90;;;;;;5134662;27;20027;-64
2021/01/02 04:38:51;;;;;;;44.40;20.67;;;3.20;99.90;;;;;;5135875;27;20733;-65
2021/01/02 04:41:16;;;;;;;45.60;21.70;;;3.10;99.90;;;;;;5135865;27;20479;-65
2021/01/02 04:43:47;;;;;;;42.22;20.00;;;3.10;99.90;;;;;;5134579;27;20571;-65
2021/01/02 04:46:14;;;;;;;42.90;20.33;;;3.00;99.90;;;;;;5135601;27;20110;-65
2021/01/02 04:48:45;;;;;;;;;;;3.00;99.90;;;;;;5136250;27;20035;-65
2021/01/02 04:51:14;;;;;;;43.15;19.88;;;3.00;99.90;;;;;;5136215;27;19903;-65
2021/01/02 04:53:41;;;;;;;43.40;19.42;;;3.00;99.90;;;;;;5135497;27;20044;-65
2021/01/02 04:56:07;;;;;;;45.13;20.65;;;3.00;99.90;;;;;;5135556;27;20143;-65
2021/01/02 04:58:40;;;;;;;47.45;22.35;;;3.10;99.90;;;;;;5135939;27;20030;-65
2021/01/02 05:01:09;;;;;;;41.72;19.27;;;3.10;99.90;;;;;;5135537;27;20024;-65
2021/01/02 05:03:36;;;;;;;39.58;20.38;;;3.10;99.90;;;;;;5134154;27;20030;-65
2021/01/02 05:06:02;;;;;;;38.05;19.40;;;3.00;99.90;;;;;;5135549;27;20114;-65
2021/01/02 05:08:31;;;;;;;;;;;2.90;99.90;;;;;;5134726;27;20454;-65
2021/01/02 05:10:57;;;;;;;41.33;19.63;;;2.90;99.90;;;;;;5135425;27;19903;-65
2021/01/02 05:13:28;;;;;;;42.92;19.95;;;2.90;99.90;;;;;;5135320;27;20026;-65
2021/01/02 05:15:54;;;;;;;41.25;20.25;;;2.80;99.90;;;;;;5133671;27;20031;-65
2021/01/02 05:18:22;;;;;;;43.73;21.63;;;2.80;99.90;;;;;;5135595;27;20037;-65
2021/01/02 05:20:47;;;;;;;43.22;20.60;;;2.70;99.90;;;;;;5135084;27;20068;-66
2021/01/02 05:23:13;;;;;;;41.93;19.83;;;2.70;99.90;;;;;;5135063;27;20483;-66
2021/01/02 05:25:39;;;;;;;41.53;20.90;;;2.70;99.90;;;;;;5133283;27;20292;-66
2021/01/02 05:28:14;;;;;;;46.60;21.40;;;2.70;99.90;;;;;;5134874;27;20038;-66
2021/01/02 05:30:40;;;;;;;44.85;21.42;;;2.70;99.90;;;;;;5135983;27;20042;-66
2021/01/02 05:33:09;;;;;;;51.97;22.67;;;2.60;99.90;;;;;;5136400;27;20460;-66
2021/01/02 05:35:40;;;;;;;42.80;20.73;;;2.60;99.90;;;;;;5135512;27;20032;-65
2021/01/02 05:38:13;;;;;;;43.35;21.70;;;2.60;99.90;;;;;;5136611;27;20027;-65
2021/01/02 05:40:40;;;;;;;50.15;23.02;;;2.60;99.90;;;;;;5134776;27;20105;-65
2021/01/02 05:43:06;;;;;;;51.72;22.55;;;2.60;99.90;;;;;;5136273;27;20160;-66
2021/01/02 05:45:32;;;;;;;46.50;22.40;;;2.60;99.90;;;;;;5135685;27;20479;-65
2021/01/02 05:48:14;;;;;;;44.33;21.75;;;2.60;99.90;;;;;;5135858;27;20019;-66
2021/01/02 05:50:43;;;;;;;46.00;22.17;;;2.60;99.90;;;;;;5135863;27;20433;-66
2021/01/02 05:53:19;;;;;;;46.65;21.83;;;2.70;99.90;;;;;;5135560;27;20026;-66
2021/01/02 05:55:45;;;;;;;44.60;21.00;;;2.70;99.90;;;;;;5135854;27;20035;-66
2021/01/02 05:58:15;;;;;;;42.97;21.67;;;2.80;99.90;;;;;;5136351;27;20044;-66
2021/01/02 06:00:45;;;;;;;40.97;20.85;;;2.70;99.90;;;;;;5135142;27;20026;-66
2021/01/02 06:03:26;;;;;;;44.97;21.38;;;2.80;99.90;;;;;;5135620;27;20483;-65
2021/01/02 06:05:55;;;;;;;43.90;21.42;;;2.80;99.90;;;;;;5135018;27;20031;-65
2021/01/02 06:08:32;;;;;;;40.67;19.77;;;2.80;99.90;;;;;;5134090;27;20436;-65
2021/01/02 06:11:04;;;;;;;41.83;20.80;;;2.70;99.90;;;;;;5135164;27;20055;-65
2021/01/02 06:13:32;;;;;;;44.50;20.48;;;2.70;99.90;;;;;;5135348;27;20071;-65
2021/01/02 06:15:59;;;;;;;46.20;21.20;;;2.80;99.90;;;;;;5135028;28;20472;-65
2021/01/02 06:18:27;;;;;;;45.92;20.83;;;2.80;99.90;;;;;;5134949;28;20059;-64
2021/01/02 06:20:53;;;;;;;44.47;21.90;;;2.80;99.90;;;;;;5135309;28;20023;-66
2021/01/02 06:23:19;;;;;;;41.78;20.83;;;2.80;99.90;;;;;;5134979;28;20051;-66
2021/01/02 06:25:48;;;;;;;43.87;20.50;;;2.70;99.90;;;;;;5133789;28;20054;-65
2021/01/02 06:28:15;;;;;;;42.03;20.52;;;2.80;99.90;;;;;;5136483;28;20450;-65
2021/01/02 06:30:42;;;;;;;42.42;20.30;;;2.80;99.90;;;;;;5136119;28;20026;-65
2021/01/02 06:33:15;;;;;;;41.83;20.75;;;2.80;99.90;;;;;;5135174;28;20546;-64
2021/01/02 06:35:41;;;;;;;44.75;20.67;;;2.80;99.90;;;;;;5136956;27;20028;-65
2021/01/02 06:38:10;;;;;;;45.33;20.45;;;2.80;99.90;;;;;;5140572;27;20019;-66
2021/01/02 06:40:48;;;;;;;38.15;19.17;;;2.90;99.90;;;;;;5140664;27;20092;-66
2021/01/02 06:43:20;;;;;;;43.75;22.17;;;2.90;99.90;;;;;;5141669;27;20159;-65
2021/01/02 06:45:48;;;;;;;40.75;19.80;;;2.90;99.90;;;;;;5141153;27;20031;-65
2021/01/02 06:48:16;;;;;;;44.03;20.35;;;2.80;99.90;;;;;;5141190;27;20031;-65
2021/01/02 06:50:47;;;;;;;43.58;20.67;;;2.80;99.90;;;;;;5140298;27;20057;-65
2021/01/02 06:53:30;;;;;;;45.42;20.77;;;2.80;99.90;;;;;;5141851;27;20034;-65
2021/01/02 06:56:11;;;;;;;44.67;20.73;;;2.80;99.90;;;;;;5141812;27;20540;-65
2021/01/02 06:58:48;;;;;;;42.65;20.02;;;2.90;99.90;;;;;;5141676;27;20447;-65
2021/01/02 07:01:17;;;;;;;38.03;19.45;;;3.00;99.90;;;;;;5140531;27;20016;-65
2021/01/02 07:03:43;;;;;;;40.78;20.92;;;3.00;99.90;;;;;;5139544;27;20383;-65
2021/01/02 07:06:23;;;;;;;46.28;21.58;;;3.00;99.90;;;;;;5141020;27;20023;-65
2021/01/02 07:08:55;;;;;;;38.45;19.60;;;3.00;99.90;;;;;;5142467;27;20023;-66
2021/01/02 07:11:31;;;;;;;40.97;20.48;;;3.10;99.90;;;;;;5143058;27;20115;-65
2021/01/02 07:14:14;;;;;;;40.38;21.02;;;3.10;99.90;;;;;;5141774;27;20023;-65
2021/01/02 07:16:59;;;;;;;35.40;19.17;;;3.10;99.90;;;;;;5140923;27;20041;-64
2021/01/02 07:22:10;;;;;;;42.03;20.33;;;3.10;99.90;;;;;;5146686;27;20034;-65
2021/01/02 07:24:46;;;;;;;39.45;19.00;;;3.00;99.90;;;;;;5150760;27;20035;-65
2021/01/02 07:27:13;;;;;;;39.55;19.65;;;3.00;99.90;;;;;;5150937;27;20022;-65
2021/01/02 07:29:40;;;;;;;;;;;3.10;99.90;;;;;;5149582;27;20019;-65
2021/01/02 07:32:11;;;;;;;31.58;17.00;;;3.00;99.90;;;;;;5145502;27;19997;-65
2021/01/02 07:34:38;;;;;;;38.30;19.25;;;3.00;99.90;;;;;;5140588;27;20019;-65
2021/01/02 07:37:09;;;;;;;34.80;18.10;;;3.10;99.90;;;;;;5138996;27;20026;-65
2021/01/02 07:39:35;;;;;;;33.33;17.42;;;3.00;99.90;;;;;;5137440;27;20225;-65
2021/01/02 07:42:06;;;;;;;;;;;3.00;99.90;;;;;;5138487;27;20041;-65
2021/01/02 07:44:32;;;;;;;36.78;18.73;;;3.00;99.90;;;;;;5137942;27;20382;-65
2021/01/02 07:46:57;;;;;;;34.05;17.95;;;2.90;99.90;;;;;;5136976;27;20023;-65
2021/01/02 07:49:23;;;;;;;41.43;20.30;;;2.80;99.90;;;;;;5136916;27;20023;-65
2021/01/02 07:51:49;;;;;;;37.10;19.27;;;2.80;99.90;;;;;;5138059;27;20409;-65
2021/01/02 07:54:32;;;;;;;38.53;19.95;;;2.80;99.90;;;;;;5138303;27;20023;-65
2021/01/02 07:56:58;;;;;;;38.22;19.95;;;2.70;99.90;;;;;;5139766;27;20020;-65
2021/01/02 07:59:38;;;;;;;39.08;19.65;;;2.70;99.90;;;;;;5136301;27;20067;-65
2021/01/02 08:02:06;;;;;;;39.33;20.23;;;2.60;99.90;;;;;;5136702;27;20115;-66
2021/01/02 08:04:32;;;;;;;42.65;20.88;;;2.50;99.90;;;;;;5137826;27;20027;-66
2021/01/02 08:07:00;;;;;;;42.13;20.42;;;2.50;99.90;;;;;;5138302;27;20109;-65
2021/01/02 08:09:27;;;;;;;39.58;20.27;;;2.50;99.90;;;;;;5138671;27;20034;-66
2021/01/02 08:11:54;;;;;;;42.30;20.92;;;2.50;99.90;;;;;;5137073;27;20091;-66
2021/01/02 08:14:21;;;;;;;47.75;22.45;;;2.50;99.90;;;;;;5138540;27;20141;-66
2021/01/02 08:17:08;;;;;;;41.58;21.17;;;2.60;99.90;;;;;;5137640;27;20548;-64
2021/01/02 08:19:40;;;;;;;42.92;21.75;;;2.60;99.90;;;;;;5139846;27;20030;-64
2021/01/02 08:22:08;;;;;;;42.53;21.00;;;2.60;99.90;;;;;;5137436;27;20464;-65
2021/01/02 08:24:34;;;;;;;39.55;20.17;;;2.70;99.90;;;;;;5138409;27;20019;-65
2021/01/02 08:27:02;;;;;;;40.72;20.50;;;2.70;99.90;;;;;;5137895;27;20104;-66
2021/01/02 08:29:28;;;;;;;40.83;19.98;;;2.70;99.90;;;;;;5138342;27;20057;-65
2021/01/02 08:32:13;;;;;;;41.33;20.65;;;2.80;99.90;;;;;;5136609;27;20030;-65
2021/01/02 08:34:44;;;;;;;44.65;19.50;;;2.90;99.90;;;;;;5137841;27;20084;-65
2021/01/02 08:37:14;;;;;;;38.95;20.60;;;2.90;99.90;;;;;;5136862;27;20019;-65
2021/01/02 08:39:41;;;;;;;38.92;20.55;;;3.00;99.90;;;;;;5138866;27;20015;-66
2021/01/02 08:42:07;;;;;;;;;;;3.00;99.90;;;;;;5137298;27;20058;-66
2021/01/02 08:44:35;;;;;;;35.58;18.95;;;3.10;99.90;;;;;;5137376;27;19903;-66
2021/01/02 08:47:05;;;;;;;37.55;19.02;;;3.10;99.90;;;;;;5138772;27;20035;-66
2021/01/02 08:49:32;;;;;;;41.10;21.17;;;3.10;99.90;;;;;;5136906;27;20023;-65
2021/01/02 08:52:24;;;;;;;42.85;22.40;;;3.20;99.90;;;;;;5135535;27;20098;-66
2021/01/02 08:54:52;;;;;;;41.53;19.42;;;3.20;99.90;;;;;;5137415;27;20417;-64
2021/01/02 08:57:24;;;;;;;37.20;19.00;;;3.20;99.90;;;;;;5136199;27;20445;-67
2021/01/02 08:59:50;;;;;;;37.05;18.77;;;3.20;99.90;;;;;;5136895;27;20494;-67
2021/01/02 09:02:16;;;;;;;42.50;21.25;;;3.20;99.90;;;;;;5138181;27;20027;-67
2021/01/02 09:04:42;;;;;;;38.83;20.02;;;3.20;99.90;;;;;;5137080;27;20369;-67
2021/01/02 09:07:08;;;;;;;34.80;19.20;;;3.20;99.90;;;;;;5137390;27;20080;-67
2021/01/02 09:09:33;;;;;;;37.30;18.90;;;3.30;99.90;;;;;;5143024;27;20058;-66
2021/01/02 09:12:04;;;;;;;37.03;19.13;;;3.30;99.90;;;;;;5138869;27;20031;-66
2021/01/02 09:14:30;;;;;;;34.58;17.80;;;3.30;99.90;;;;;;5140139;27;20098;-66
2021/01/02 09:17:07;;;;;;;37.28;19.63;;;3.30;99.90;;;;;;5136658;27;20054;-67
2021/01/02 09:19:33;;;;;;;36.60;18.10;;;3.30;99.90;;;;;;5136280;27;20471;-66
2021/01/02 09:21:59;;;;;;;34.08;18.88;;;3.40;99.90;;;;;;5136084;27;20106;-68
2021/01/02 09:24:24;;;;;;;32.90;17.95;;;3.40;99.90;;;;;;5135676;27;20019;-67
2021/01/02 09:26:50;;;;;;;35.57;18.27;;;3.40;99.90;;;;;;5135219;27;20076;-65
2021/01/02 09:29:17;;;;;;;36.97;20.33;;;3.50;99.90;;;;;;5135757;27;20080;-65
2021/01/02 09:31:44;;;;;;;35.65;19.10;;;3.40;99.90;;;;;;5134139;27;20031;-66
2021/01/02 09:34:10;;;;;;;;;;;3.50;99.90;;;;;;5134317;27;20544;-66
2021/01/02 09:36:36;;;;;;;35.20;18.17;;;3.50;99.90;;;;;;5134089;27;19903;-66
2021/01/02 09:39:03;;;;;;;31.30;17.63;;;3.50;99.90;;;;;;5134040;27;20015;-66
2021/01/02 09:41:29;;;;;;;31.58;17.42;;;3.50;99.90;;;;;;5135866;27;20087;-66
2021/01/02 09:43:56;;;;;;;34.20;18.23;;;3.60;99.90;;;;;;5135792;27;20109;-67
2021/01/02 09:46:23;;;;;;;31.92;17.52;;;3.60;99.90;;;;;;5134716;27;20275;-66
2021/01/02 09:48:52;;;;;;;32.00;17.85;;;3.60;99.90;;;;;;5133219;27;20080;-66
2021/01/02 09:51:18;;;;;;;33.95;17.98;;;3.50;99.90;;;;;;5133396;27;20023;-66
2021/01/02 09:53:45;;;;;;;33.25;18.27;;;3.50;99.90;;;;;;5134503;27;20029;-67
2021/01/02 09:56:10;;;;;;;32.80;17.63;;;3.50;99.90;;;;;;5133255;27;20023;-65
2021/01/02 09:58:36;;;;;;;33.23;18.17;;;3.50;99.90;;;;;;5134422;27;20080;-67
2021/01/02 10:01:03;;;;;;;33.60;18.17;;;3.50;99.90;;;;;;5133058;27;20264;-68
2021/01/02 10:03:29;;;;;;;31.25;17.63;;;3.50;99.90;;;;;;5134890;27;20490;-67
2021/01/02 10:05:54;;;;;;;33.20;18.07;;;3.60;99.90;;;;;;5133411;27;20031;-68
2021/01/02 10:08:21;;;;;;;32.23;17.87;;;3.70;99.90;;;;;;5133431;27;20461;-68
2021/01/02 10:10:46;;;;;;;32.72;17.88;;;3.60;99.90;;;;;;5132948;27;20039;-67
2021/01/02 10:13:12;;;;;;;30.20;17.33;;;3.60;99.90;;;;;;5133526;27;20028;-65
2021/01/02 10:15:38;;;;;;;33.17;17.98;;;3.60;99.90;;;;;;5135909;27;20759;-67
2021/01/02 10:18:04;;;;;;;30.33;17.13;;;3.60;99.90;;;;;;5137453;28;20442;-67
2021/01/02 10:20:30;;;;;;;31.73;17.80;;;3.60;99.90;;;;;;5135728;28;20098;-70
2021/01/02 10:22:56;;;;;;;31.48;17.92;;;3.60;99.90;;;;;;5136375;28;20494;-68
2021/01/02 10:25:21;;;;;;;32.97;18.73;;;3.60;99.90;;;;;;5134788;28;20023;-68
2021/01/02 10:27:47;;;;;;;36.87;19.53;;;3.50;99.90;;;;;;5134822;28;20011;-71
2021/01/02 10:30:14;;;;;;;32.73;17.93;;;3.60;99.90;;;;;;5135130;28;20054;-69
2021/01/02 10:32:40;;;;;;;32.38;17.73;;;3.60;99.90;;;;;;5133790;28;20019;-66
2021/01/02 10:35:09;;;;;;;28.27;16.77;;;3.70;99.90;;;;;;5135784;28;20571;-65
2021/01/02 10:37:35;;;;;;;30.30;16.83;;;3.70;99.90;;;;;;5136472;28;20031;-66
2021/01/02 10:40:00;;;;;;;35.77;18.50;;;3.70;99.90;;;;;;5138944;28;20479;-66
2021/01/02 10:42:31;;;;;;;34.23;18.27;;;3.70;99.90;;;;;;5137213;28;20019;-66
2021/01/02 10:44:57;;;;;;;29.00;16.63;;;3.80;99.90;;;;;;5137158;28;20119;-66
2021/01/02 10:47:25;;;;;;;31.42;16.90;;;3.70;99.90;;;;;;5139109;28;20047;-66
2021/01/02 10:49:51;;;;;;;33.22;16.83;;;3.70;99.90;;;;;;5137143;28;20519;-66
2021/01/02 10:52:23;;;;;;;33.30;18.60;;;3.70;99.90;;;;;;5140031;27;20413;-66
2021/01/02 10:54:49;;;;;;;31.45;17.35;;;3.60;99.90;;;;;;5136658;28;20479;-66
2021/01/02 10:57:16;;;;;;;;;;;3.60;99.90;;;;;;5139065;28;20067;-66
2021/01/02 10:59:46;;;;;;;30.15;17.50;;;3.70;99.90;;;;;;5140095;28;19949;-66
2021/01/02 11:02:13;;;;;;;28.48;17.25;;;3.70;99.90;;;;;;5137341;28;20015;-67
2021/01/02 11:04:39;;;;;;;;;;;3.70;99.90;;;;;;5137793;28;20048;-68
2021/01/02 11:07:05;;;;;;;27.15;16.80;;;3.70;99.90;;;;;;5136381;28;19929;-69
2021/01/02 11:09:31;;;;;;;29.27;16.45;;;3.70;99.90;;;;;;5136645;28;20106;-67
2021/01/02 11:11:57;;;;;;;26.95;16.10;;;3.80;99.90;;;;;;5134587;28;20034;-67
2021/01/02 11:14:23;;;;;;;25.70;15.47;;;3.80;99.90;;;;;;5135615;28;20020;-67
2021/01/02 11:16:49;;;;;;;27.88;16.67;;;3.80;99.90;;;;;;5133772;28;20031;-66
2021/01/02 11:19:21;;;;;;;27.98;16.58;;;3.80;99.90;;;;;;5134519;28;20030;-68
2021/01/02 11:21:48;;;;;;;28.23;15.75;;;3.80;99.90;;;;;;5134977;28;20102;-67
2021/01/02 11:24:19;;;;;;;26.90;15.93;;;3.80;99.90;;;;;;5138335;27;20023;-68
2021/01/02 11:26:46;;;;;;;23.75;14.55;;;3.90;99.90;;;;;;5137828;27;20019;-67
2021/01/02 11:29:18;;;;;;;27.60;16.30;;;3.90;99.90;;;;;;5140454;27;20034;-67
2021/01/02 11:31:44;;;;;;;24.33;14.68;;;3.90;99.90;;;;;;5138680;27;20019;-68
2021/01/02 11:34:10;;;;;;;23.23;14.00;;;4.00;99.90;;;;;;5137898;27;20023;-67
2021/01/02 11:36:36;;;;;;;24.38;14.55;;;4.10;99.90;;;;;;5137464;27;20039;-68
2021/01/02 11:39:04;;;;;;;24.98;14.80;;;4.20;99.90;;;;;;5138867;27;20022;-69
2021/01/02 11:41:38;;;;;;;21.55;13.73;;;4.30;99.90;;;;;;5137198;27;20056;-67
2021/01/02 11:44:06;;;;;;;22.30;13.18;;;4.40;99.90;;;;;;5137186;27;20023;-68
2021/01/02 11:46:38;;;;;;;21.75;13.15;;;4.40;99.90;;;;;;5137637;27;20391;-68
2021/01/02 11:49:09;;;;;;;23.00;13.95;;;4.40;99.90;;;;;;5139196;27;20028;-68
2021/01/02 11:51:34;;;;;;;21.52;13.65;;;4.40;99.90;;;;;;5137942;27;20046;-70
2021/01/02 11:54:01;;;;;;;22.17;12.87;;;4.40;99.90;;;;;;5138263;27;20479;-67
2021/01/02 11:56:31;;;;;;;21.70;13.13;;;4.30;99.90;;;;;;5137848;27;20019;-69
2021/01/02 11:59:01;;;;;;;22.83;13.60;;;4.30;99.90;;;;;;5138891;27;20023;-67
2021/01/02 12:01:36;;;;;;;19.95;12.23;;;4.30;99.90;;;;;;5137568;27;20026;-68
2021/01/02 12:04:02;;;;;;;21.67;12.90;;;4.30;99.90;;;;;;5137189;27;20055;-68
2021/01/02 12:06:29;;;;;;;21.73;12.23;;;4.30;99.90;;;;;;5137586;27;20023;-68
2021/01/02 12:08:56;;;;;;;18.75;11.73;;;4.40;99.90;;;;;;5137833;27;20031;-68
2021/01/02 12:11:30;;;;;;;18.60;11.65;;;4.30;99.90;;;;;;5139158;27;20489;-69
2021/01/02 12:13:56;;;;;;;19.48;11.63;;;4.30;99.90;;;;;;5138938;27;20038;-69
2021/01/02 12:16:33;;;;;;;16.48;10.63;;;4.40;99.90;;;;;;5139178;27;20023;-68
2021/01/02 12:18:58;;;;;;;19.00;11.30;;;4.40;99.90;;;;;;5138966;27;20030;-69
2021/01/02 12:21:24;;;;;;;18.20;11.00;;;4.40;99.90;;;;;;5137765;27;20403;-68
2021/01/02 12:23:50;;;;;;;18.73;11.00;;;4.50;99.90;;;;;;5137720;27;20023;-68
2021/01/02 12:26:16;;;;;;;16.93;10.67;;;4.60;99.90;;;;;;5136725;27;20580;-68
2021/01/02 12:28:47;;;;;;;17.83;10.47;;;4.60;99.90;;;;;;5135648;27;20020;-67
2021/01/02 12:31:15;;;;;;;20.00;11.38;;;4.60;99.90;;;;;;5137613;27;20027;-68
2021/01/02 12:33:41;;;;;;;16.45;10.35;;;4.60;99.90;;;;;;5137433;27;20026;-68
2021/01/02 12:36:06;;;;;;;18.30;10.77;;;4.60;99.90;;;;;;5136085;27;20380;-68
2021/01/02 12:38:32;;;;;;;13.93;9.27;;;4.60;99.90;;;;;;5138389;27;20027;-68
2021/01/02 12:40:58;;;;;;;15.17;9.70;;;4.60;99.90;;;;;;5137486;27;20023;-70
2021/01/02 12:43:23;;;;;;;15.20;10.07;;;4.70;99.90;;;;;;5136845;27;20364;-68
2021/01/02 12:45:49;;;;;;;17.83;10.37;;;4.60;99.90;;;;;;5135816;27;20027;-67
2021/01/02 12:48:14;;;;;;;13.87;8.80;;;4.70;99.90;;;;;;5136288;27;20055;-67
2021/01/02 12:50:40;;;;;;;15.13;9.17;;;4.70;99.90;;;;;;5137729;27;20087;-68
2021/01/02 12:53:05;;;;;;;14.87;8.83;;;4.60;99.90;;;;;;5137759;27;20035;-68
2021/01/02 12:55:31;;;;;;;14.97;9.07;;;4.50;99.90;;;;;;5136901;27;20019;-68
2021/01/02 12:57:57;;;;;;;13.30;8.43;;;4.40;99.90;;;;;;5137766;27;20321;-67